DFMAX EGPB-ENBR
Flight info
| Callsign | DFMAX |
|---|---|
| Flight time | 0h 58m |
| Altitude | 29000 |
| Route | BODAM DCT PEPIN DCT MODNI |
| Aircraft | TBM8/L-SDFGRWY/S |
Departure
| Time | 2026-04-30 21:02 |
|---|---|
| Airport | Sumburgh Airport (EGPB) |
Arrival
| Time | 2026-04-30 22:01 |
|---|---|
| Airport | Bergen Airport, Flesland (ENBR) |
| Time | Latitude | Longitude | Altitude | Speed | Heading |
|---|---|---|---|---|---|
| 2026-04-30 20:27 | 59.87830 | -1.29213 | 38 ft | 0 kts | 142° |
| 2026-04-30 20:55 | 59.87817 | -1.29193 | 38 ft | 7 kts | 143° |
| 2026-04-30 20:56 | 59.87789 | -1.29183 | 38 ft | 2 kts | 229° |
| 2026-04-30 20:56 | 59.87785 | -1.29243 | 38 ft | 7 kts | 317° |
| 2026-04-30 20:56 | 59.87876 | -1.29361 | 38 ft | 6 kts | 323° |
| 2026-04-30 20:57 | 59.87902 | -1.29397 | 38 ft | 3 kts | 318° |
| 2026-04-30 20:57 | 59.87911 | -1.29420 | 38 ft | 0 kts | 296° |
| 2026-04-30 20:59 | 59.87905 | -1.29492 | 38 ft | 8 kts | 224° |
| 2026-04-30 20:59 | 59.87873 | -1.29544 | 38 ft | 5 kts | 235° |
| 2026-04-30 21:00 | 59.87977 | -1.29749 | 38 ft | 18 kts | 325° |
| 2026-04-30 21:00 | 59.88077 | -1.29896 | 41 ft | 7 kts | 314° |
| 2026-04-30 21:01 | 59.88071 | -1.29879 | 40 ft | 7 kts | 151° |
| 2026-04-30 21:01 | 59.88049 | -1.29848 | 40 ft | 1 kts | 142° |
| 2026-04-30 21:02 | 59.87989 | -1.29761 | 38 ft | 35 kts | 144° |
| 2026-04-30 21:02 | 59.87636 | -1.29238 | 40 ft | 89 kts | 143° |
| 2026-04-30 21:02 | 59.87089 | -1.28325 | 240 ft | 110 kts | 144° |
| 2026-04-30 21:02 | 59.86547 | -1.27306 | 745 ft | 104 kts | 145° |
| 2026-04-30 21:03 | 59.86085 | -1.26333 | 1372 ft | 97 kts | 144° |
| 2026-04-30 21:03 | 59.85639 | -1.25048 | 1542 ft | 135 kts | 126° |
| 2026-04-30 21:03 | 59.85441 | -1.22986 | 1788 ft | 168 kts | 99° |
| 2026-04-30 21:03 | 59.85836 | -1.20653 | 2143 ft | 197 kts | 59° |
| 2026-04-30 21:04 | 59.87027 | -1.19146 | 2401 ft | 214 kts | 11° |
| 2026-04-30 21:04 | 59.88525 | -1.18890 | 2643 ft | 216 kts | 356° |
| 2026-04-30 21:04 | 59.91370 | -1.16599 | 3130 ft | 232 kts | 44° |
| 2026-04-30 21:05 | 59.92330 | -1.14098 | 3370 ft | 230 kts | 67° |
| 2026-04-30 21:05 | 59.92818 | -1.11086 | 3627 ft | 228 kts | 85° |
| 2026-04-30 21:05 | 59.93027 | -1.07932 | 3884 ft | 230 kts | 90° |
| 2026-04-30 21:05 | 59.93193 | -1.04742 | 4140 ft | 233 kts | 90° |
| 2026-04-30 21:06 | 59.93332 | -1.01523 | 4396 ft | 233 kts | 92° |
| 2026-04-30 21:06 | 59.93472 | -0.98279 | 4652 ft | 235 kts | 91° |
| 2026-04-30 21:06 | 59.93647 | -0.95034 | 4908 ft | 236 kts | 90° |
| 2026-04-30 21:06 | 59.93837 | -0.91785 | 5177 ft | 236 kts | 90° |
| 2026-04-30 21:07 | 59.94035 | -0.88531 | 5429 ft | 237 kts | 90° |
| 2026-04-30 21:07 | 59.94234 | -0.85268 | 5680 ft | 237 kts | 90° |
| 2026-04-30 21:07 | 59.94433 | -0.81989 | 5931 ft | 238 kts | 90° |
| 2026-04-30 21:07 | 59.94628 | -0.78701 | 6188 ft | 239 kts | 90° |
| 2026-04-30 21:08 | 59.94819 | -0.75438 | 6441 ft | 240 kts | 90° |
| 2026-04-30 21:08 | 59.95012 | -0.72121 | 6693 ft | 241 kts | 90° |
| 2026-04-30 21:08 | 59.95207 | -0.68797 | 6934 ft | 241 kts | 90° |
| 2026-04-30 21:08 | 59.95401 | -0.65459 | 7174 ft | 242 kts | 90° |
| 2026-04-30 21:09 | 59.95593 | -0.62110 | 7422 ft | 243 kts | 90° |
| 2026-04-30 21:09 | 59.95787 | -0.58741 | 7670 ft | 244 kts | 91° |
| 2026-04-30 21:09 | 59.96021 | -0.55368 | 7924 ft | 247 kts | 85° |
| 2026-04-30 21:09 | 59.96328 | -0.52036 | 8183 ft | 247 kts | 87° |
| 2026-04-30 21:10 | 59.96560 | -0.48644 | 8431 ft | 246 kts | 90° |
| 2026-04-30 21:10 | 59.96744 | -0.45241 | 8688 ft | 247 kts | 91° |
| 2026-04-30 21:10 | 59.96918 | -0.41821 | 8941 ft | 248 kts | 91° |
| 2026-04-30 21:10 | 59.97094 | -0.38395 | 9208 ft | 249 kts | 90° |
| 2026-04-30 21:11 | 59.97275 | -0.34947 | 9470 ft | 250 kts | 91° |
| 2026-04-30 21:11 | 59.97461 | -0.31492 | 9733 ft | 251 kts | 91° |
| 2026-04-30 21:11 | 59.97651 | -0.28022 | 9998 ft | 252 kts | 90° |
| 2026-04-30 21:11 | 59.97845 | -0.24540 | 10254 ft | 253 kts | 91° |
| 2026-04-30 21:12 | 59.98036 | -0.21086 | 10485 ft | 254 kts | 91° |
| 2026-04-30 21:12 | 59.98229 | -0.17575 | 10729 ft | 254 kts | 91° |
| 2026-04-30 21:12 | 59.98421 | -0.14056 | 10970 ft | 255 kts | 91° |
| 2026-04-30 21:12 | 59.98612 | -0.10525 | 11215 ft | 256 kts | 91° |
| 2026-04-30 21:13 | 59.98801 | -0.06967 | 11467 ft | 257 kts | 91° |
| 2026-04-30 21:13 | 59.98989 | -0.03407 | 11716 ft | 258 kts | 92° |
| 2026-04-30 21:13 | 59.99175 | 0.00157 | 11954 ft | 259 kts | 92° |
| 2026-04-30 21:13 | 59.99348 | 0.03705 | 12201 ft | 259 kts | 93° |
| 2026-04-30 21:14 | 59.99459 | 0.07307 | 12454 ft | 260 kts | 95° |
| 2026-04-30 21:14 | 59.99536 | 0.10928 | 12713 ft | 262 kts | 96° |
| 2026-04-30 21:14 | 59.99608 | 0.14576 | 12975 ft | 264 kts | 96° |
| 2026-04-30 21:14 | 59.99682 | 0.18250 | 13238 ft | 265 kts | 96° |
| 2026-04-30 21:15 | 59.99762 | 0.21954 | 13507 ft | 267 kts | 96° |
| 2026-04-30 21:15 | 59.99845 | 0.25670 | 13772 ft | 268 kts | 96° |
| 2026-04-30 21:15 | 59.99932 | 0.29410 | 14045 ft | 270 kts | 96° |
| 2026-04-30 21:15 | 60.00019 | 0.33163 | 14287 ft | 271 kts | 96° |
| 2026-04-30 21:16 | 60.00107 | 0.36934 | 14526 ft | 272 kts | 96° |
| 2026-04-30 21:16 | 60.00195 | 0.40715 | 14763 ft | 272 kts | 96° |
| 2026-04-30 21:16 | 60.00282 | 0.44454 | 15003 ft | 273 kts | 96° |
| 2026-04-30 21:16 | 60.00368 | 0.48249 | 15248 ft | 273 kts | 96° |
| 2026-04-30 21:17 | 60.00454 | 0.52049 | 15496 ft | 274 kts | 96° |
| 2026-04-30 21:17 | 60.00538 | 0.55857 | 15751 ft | 274 kts | 96° |
| 2026-04-30 21:17 | 60.00622 | 0.59658 | 15997 ft | 274 kts | 96° |
| 2026-04-30 21:17 | 60.00704 | 0.63464 | 16247 ft | 274 kts | 96° |
| 2026-04-30 21:18 | 60.00787 | 0.67287 | 16479 ft | 275 kts | 95° |
| 2026-04-30 21:18 | 60.00868 | 0.71112 | 16734 ft | 276 kts | 95° |
| 2026-04-30 21:18 | 60.00948 | 0.74945 | 16990 ft | 276 kts | 95° |
| 2026-04-30 21:18 | 60.01025 | 0.78788 | 17249 ft | 277 kts | 95° |
| 2026-04-30 21:19 | 60.01103 | 0.82636 | 17522 ft | 277 kts | 95° |
| 2026-04-30 21:19 | 60.01177 | 0.86431 | 17782 ft | 277 kts | 95° |
| 2026-04-30 21:19 | 60.01254 | 0.90285 | 18050 ft | 277 kts | 95° |
| 2026-04-30 21:19 | 60.01328 | 0.94139 | 18317 ft | 278 kts | 95° |
| 2026-04-30 21:20 | 60.01401 | 0.97996 | 18581 ft | 278 kts | 95° |
| 2026-04-30 21:20 | 60.01474 | 1.01860 | 18818 ft | 278 kts | 95° |
| 2026-04-30 21:20 | 60.01545 | 1.05723 | 19053 ft | 278 kts | 95° |
| 2026-04-30 21:20 | 60.01616 | 1.09597 | 19295 ft | 278 kts | 95° |
| 2026-04-30 21:21 | 60.01685 | 1.13471 | 19535 ft | 278 kts | 95° |
| 2026-04-30 21:21 | 60.01752 | 1.17281 | 19771 ft | 278 kts | 95° |
| 2026-04-30 21:21 | 60.01885 | 1.25042 | 20254 ft | 279 kts | 95° |
| 2026-04-30 21:22 | 60.01950 | 1.28914 | 20506 ft | 279 kts | 95° |
| 2026-04-30 21:22 | 60.02138 | 1.40555 | 21245 ft | 279 kts | 95° |
| 2026-04-30 21:23 | 60.02198 | 1.44435 | 21501 ft | 279 kts | 95° |
| 2026-04-30 21:23 | 60.02256 | 1.48278 | 21755 ft | 279 kts | 95° |
| 2026-04-30 21:23 | 60.02371 | 1.56051 | 22274 ft | 279 kts | 95° |
| 2026-04-30 21:24 | 60.02427 | 1.59927 | 22545 ft | 279 kts | 95° |
| 2026-04-30 21:24 | 60.02481 | 1.63805 | 22811 ft | 279 kts | 95° |
| 2026-04-30 21:24 | 60.02535 | 1.67679 | 23080 ft | 278 kts | 95° |
| 2026-04-30 21:24 | 60.02587 | 1.71543 | 23351 ft | 278 kts | 95° |
| 2026-04-30 21:25 | 60.02683 | 1.79336 | 23546 ft | 290 kts | 95° |
| 2026-04-30 21:25 | 60.02729 | 1.83322 | 23895 ft | 286 kts | 95° |
| 2026-04-30 21:25 | 60.02781 | 1.87294 | 24136 ft | 284 kts | 95° |
| 2026-04-30 21:26 | 60.02880 | 1.95168 | 24599 ft | 282 kts | 95° |
| 2026-04-30 21:26 | 60.02911 | 1.97765 | 24753 ft | 281 kts | 95° |
| 2026-04-30 21:27 | 60.03013 | 2.06829 | 25280 ft | 279 kts | 95° |
| 2026-04-30 21:27 | 60.03051 | 2.10776 | 25315 ft | 288 kts | 95° |
| 2026-04-30 21:27 | 60.03074 | 2.13500 | 25328 ft | 293 kts | 95° |
| 2026-04-30 21:28 | 60.03141 | 2.21805 | 25343 ft | 307 kts | 95° |
| 2026-04-30 21:28 | 60.03177 | 2.26125 | 25345 ft | 313 kts | 95° |
| 2026-04-30 21:28 | 60.03252 | 2.34976 | 25345 ft | 322 kts | 94° |
| 2026-04-30 21:29 | 60.03289 | 2.39479 | 25349 ft | 326 kts | 94° |
| 2026-04-30 21:29 | 60.03393 | 2.53188 | 25348 ft | 333 kts | 94° |
| 2026-04-30 21:30 | 60.03456 | 2.62507 | 25347 ft | 336 kts | 95° |
| 2026-04-30 21:31 | 60.03537 | 2.76518 | 25349 ft | 338 kts | 94° |
| 2026-04-30 21:31 | 60.03584 | 2.85943 | 25351 ft | 339 kts | 94° |
| 2026-04-30 21:32 | 60.03625 | 2.95389 | 25359 ft | 339 kts | 94° |
| 2026-04-30 21:32 | 60.03642 | 3.00118 | 25358 ft | 340 kts | 94° |
| 2026-04-30 21:32 | 60.03658 | 3.04784 | 25357 ft | 340 kts | 94° |
| 2026-04-30 21:32 | 60.03672 | 3.09512 | 25356 ft | 340 kts | 94° |
| 2026-04-30 21:33 | 60.03685 | 3.14247 | 25353 ft | 340 kts | 95° |
| 2026-04-30 21:33 | 60.03694 | 3.24021 | 24528 ft | 361 kts | 95° |
| 2026-04-30 21:33 | 60.03701 | 3.29053 | 24066 ft | 361 kts | 94° |
| 2026-04-30 21:34 | 60.03705 | 3.34094 | 23516 ft | 361 kts | 95° |
| 2026-04-30 21:34 | 60.03665 | 3.44063 | 22450 ft | 360 kts | 95° |
| 2026-04-30 21:34 | 60.03656 | 3.49048 | 21935 ft | 355 kts | 95° |
| 2026-04-30 21:35 | 60.03645 | 3.53929 | 21419 ft | 345 kts | 95° |
| 2026-04-30 21:35 | 60.03633 | 3.58588 | 20908 ft | 326 kts | 96° |
| 2026-04-30 21:35 | 60.03644 | 3.63042 | 20403 ft | 314 kts | 95° |
| 2026-04-30 21:35 | 60.03680 | 3.67345 | 19912 ft | 305 kts | 95° |
| 2026-04-30 21:36 | 60.03703 | 3.71555 | 19437 ft | 299 kts | 96° |
| 2026-04-30 21:36 | 60.03710 | 3.75666 | 18961 ft | 290 kts | 97° |
| 2026-04-30 21:37 | 60.03679 | 3.86891 | 17396 ft | 260 kts | 98° |
| 2026-04-30 21:37 | 60.03670 | 3.90475 | 16878 ft | 255 kts | 98° |
| 2026-04-30 21:37 | 60.03753 | 3.94013 | 16368 ft | 257 kts | 88° |
| 2026-04-30 21:37 | 60.04245 | 3.97470 | 15880 ft | 259 kts | 70° |
| 2026-04-30 21:38 | 60.05147 | 4.00541 | 15511 ft | 254 kts | 54° |
| 2026-04-30 21:38 | 60.06360 | 4.03012 | 15148 ft | 250 kts | 39° |
| 2026-04-30 21:38 | 60.07660 | 4.05284 | 14789 ft | 247 kts | 42° |
| 2026-04-30 21:38 | 60.08946 | 4.07631 | 14429 ft | 251 kts | 42° |
| 2026-04-30 21:39 | 60.10241 | 4.10012 | 14067 ft | 253 kts | 43° |
| 2026-04-30 21:39 | 60.11537 | 4.12410 | 13691 ft | 253 kts | 42° |
| 2026-04-30 21:39 | 60.12831 | 4.14793 | 13298 ft | 252 kts | 41° |
| 2026-04-30 21:39 | 60.14126 | 4.17151 | 12908 ft | 251 kts | 41° |
| 2026-04-30 21:40 | 60.15416 | 4.19485 | 12532 ft | 255 kts | 41° |
| 2026-04-30 21:40 | 60.16743 | 4.21896 | 12157 ft | 258 kts | 41° |
| 2026-04-30 21:40 | 60.18069 | 4.24330 | 11786 ft | 258 kts | 41° |
| 2026-04-30 21:40 | 60.19392 | 4.26763 | 11418 ft | 257 kts | 41° |
| 2026-04-30 21:41 | 60.20708 | 4.29182 | 11061 ft | 256 kts | 41° |
| 2026-04-30 21:41 | 60.22018 | 4.31590 | 10700 ft | 254 kts | 41° |
| 2026-04-30 21:41 | 60.23318 | 4.33981 | 10337 ft | 252 kts | 41° |
| 2026-04-30 21:41 | 60.24605 | 4.36350 | 9950 ft | 250 kts | 41° |
| 2026-04-30 21:42 | 60.25866 | 4.38674 | 9559 ft | 247 kts | 41° |
| 2026-04-30 21:42 | 60.27128 | 4.41003 | 9169 ft | 245 kts | 41° |
| 2026-04-30 21:42 | 60.28379 | 4.43312 | 8784 ft | 243 kts | 41° |
| 2026-04-30 21:42 | 60.29620 | 4.45606 | 8404 ft | 240 kts | 41° |
| 2026-04-30 21:43 | 60.30846 | 4.47874 | 8023 ft | 238 kts | 41° |
| 2026-04-30 21:43 | 60.32060 | 4.50123 | 7643 ft | 236 kts | 42° |
| 2026-04-30 21:43 | 60.33261 | 4.52352 | 7283 ft | 232 kts | 42° |
| 2026-04-30 21:43 | 60.34435 | 4.54542 | 6919 ft | 228 kts | 42° |
| 2026-04-30 21:44 | 60.35573 | 4.56673 | 6538 ft | 224 kts | 44° |
| 2026-04-30 21:44 | 60.36570 | 4.59052 | 6153 ft | 221 kts | 57° |
| 2026-04-30 21:44 | 60.37302 | 4.61742 | 5778 ft | 217 kts | 64° |
| 2026-04-30 21:44 | 60.38044 | 4.64389 | 5411 ft | 215 kts | 60° |
| 2026-04-30 21:45 | 60.38867 | 4.66901 | 5033 ft | 214 kts | 50° |
| 2026-04-30 21:45 | 60.39990 | 4.68851 | 4644 ft | 212 kts | 31° |
| 2026-04-30 21:45 | 60.41328 | 4.70023 | 4261 ft | 208 kts | 12° |
| 2026-04-30 21:45 | 60.42738 | 4.70342 | 4030 ft | 196 kts | 353° |
| 2026-04-30 21:46 | 60.44024 | 4.69909 | 4002 ft | 181 kts | 339° |
| 2026-04-30 21:46 | 60.45208 | 4.69336 | 3976 ft | 177 kts | 351° |
| 2026-04-30 21:46 | 60.46430 | 4.69660 | 3973 ft | 178 kts | 15° |
| 2026-04-30 21:46 | 60.47585 | 4.70553 | 3975 ft | 177 kts | 20° |
| 2026-04-30 21:47 | 60.48723 | 4.71471 | 3977 ft | 175 kts | 19° |
| 2026-04-30 21:47 | 60.49863 | 4.72334 | 3980 ft | 174 kts | 17° |
| 2026-04-30 21:47 | 60.51007 | 4.73156 | 3985 ft | 174 kts | 17° |
| 2026-04-30 21:47 | 60.52151 | 4.73954 | 3978 ft | 173 kts | 17° |
| 2026-04-30 21:48 | 60.53292 | 4.74735 | 3980 ft | 173 kts | 16° |
| 2026-04-30 21:48 | 60.54430 | 4.75508 | 3983 ft | 172 kts | 16° |
| 2026-04-30 21:48 | 60.55552 | 4.76265 | 3983 ft | 172 kts | 16° |
| 2026-04-30 21:48 | 60.56689 | 4.77031 | 3983 ft | 172 kts | 16° |
| 2026-04-30 21:49 | 60.57827 | 4.77798 | 3985 ft | 172 kts | 16° |
| 2026-04-30 21:49 | 60.58966 | 4.78566 | 3983 ft | 172 kts | 16° |
| 2026-04-30 21:49 | 60.60104 | 4.79336 | 3986 ft | 175 kts | 16° |
| 2026-04-30 21:49 | 60.61250 | 4.80431 | 3984 ft | 189 kts | 37° |
| 2026-04-30 21:50 | 60.62042 | 4.82561 | 3986 ft | 192 kts | 73° |
| 2026-04-30 21:50 | 60.62523 | 4.85110 | 3990 ft | 193 kts | 69° |
| 2026-04-30 21:50 | 60.62895 | 4.87710 | 3981 ft | 190 kts | 89° |
| 2026-04-30 21:50 | 60.62746 | 4.90287 | 3943 ft | 186 kts | 113° |
| 2026-04-30 21:51 | 60.62119 | 4.92590 | 3690 ft | 188 kts | 135° |
| 2026-04-30 21:51 | 60.61106 | 4.94216 | 3440 ft | 185 kts | 158° |
| 2026-04-30 21:51 | 60.59883 | 4.94877 | 3193 ft | 182 kts | 173° |
| 2026-04-30 21:51 | 60.58657 | 4.95539 | 3024 ft | 180 kts | 164° |
| 2026-04-30 21:52 | 60.57504 | 4.96361 | 3002 ft | 172 kts | 164° |
| 2026-04-30 21:52 | 60.56383 | 4.97131 | 2988 ft | 168 kts | 165° |
| 2026-04-30 21:52 | 60.55274 | 4.97849 | 2976 ft | 166 kts | 166° |
| 2026-04-30 21:52 | 60.54175 | 4.98533 | 2986 ft | 164 kts | 166° |
| 2026-04-30 21:53 | 60.53083 | 4.99200 | 2983 ft | 163 kts | 166° |
| 2026-04-30 21:53 | 60.52028 | 4.99841 | 3184 ft | 154 kts | 166° |
| 2026-04-30 21:53 | 60.51042 | 5.00449 | 3431 ft | 147 kts | 167° |
| 2026-04-30 21:53 | 60.50064 | 5.00930 | 3683 ft | 142 kts | 174° |
| 2026-04-30 21:54 | 60.49099 | 5.01360 | 3928 ft | 143 kts | 172° |
| 2026-04-30 21:54 | 60.48098 | 5.01914 | 3953 ft | 154 kts | 167° |
| 2026-04-30 21:54 | 60.47252 | 5.03382 | 3967 ft | 170 kts | 133° |
| 2026-04-30 21:54 | 60.46498 | 5.05359 | 3767 ft | 183 kts | 134° |
| 2026-04-30 21:55 | 60.45697 | 5.07398 | 3538 ft | 181 kts | 134° |
| 2026-04-30 21:55 | 60.44951 | 5.09278 | 3327 ft | 167 kts | 134° |
| 2026-04-30 21:55 | 60.44234 | 5.11067 | 3140 ft | 160 kts | 135° |
| 2026-04-30 21:55 | 60.43520 | 5.12723 | 2958 ft | 152 kts | 138° |
| 2026-04-30 21:56 | 60.42789 | 5.14265 | 2774 ft | 151 kts | 141° |
| 2026-04-30 21:56 | 60.42018 | 5.15700 | 2587 ft | 149 kts | 148° |
| 2026-04-30 21:56 | 60.41139 | 5.16720 | 2407 ft | 138 kts | 159° |
| 2026-04-30 21:56 | 60.40323 | 5.17412 | 2238 ft | 120 kts | 162° |
| 2026-04-30 21:57 | 60.39580 | 5.17940 | 2108 ft | 107 kts | 166° |
| 2026-04-30 21:57 | 60.38956 | 5.18317 | 1957 ft | 85 kts | 167° |
| 2026-04-30 21:57 | 60.38371 | 5.18637 | 1837 ft | 90 kts | 169° |
| 2026-04-30 21:57 | 60.37753 | 5.18929 | 1715 ft | 92 kts | 170° |
| 2026-04-30 21:58 | 60.37119 | 5.19190 | 1582 ft | 93 kts | 172° |
| 2026-04-30 21:58 | 60.36476 | 5.19416 | 1456 ft | 94 kts | 173° |
| 2026-04-30 21:58 | 60.35821 | 5.19625 | 1323 ft | 96 kts | 172° |
| 2026-04-30 21:58 | 60.35201 | 5.19818 | 1187 ft | 80 kts | 173° |
| 2026-04-30 21:59 | 60.34669 | 5.20009 | 1082 ft | 79 kts | 171° |
| 2026-04-30 21:59 | 60.34121 | 5.20184 | 969 ft | 81 kts | 173° |
| 2026-04-30 21:59 | 60.33568 | 5.20366 | 876 ft | 81 kts | 170° |
| 2026-04-30 22:00 | 60.32447 | 5.20773 | 623 ft | 83 kts | 171° |
| 2026-04-30 22:00 | 60.31285 | 5.21160 | 376 ft | 87 kts | 170° |
| 2026-04-30 22:00 | 60.30698 | 5.21354 | 256 ft | 83 kts | 172° |
| 2026-04-30 22:01 | 60.30152 | 5.21537 | 164 ft | 74 kts | 167° |
| 2026-04-30 22:01 | 60.29749 | 5.21679 | 141 ft | 40 kts | 170° |
| 2026-04-30 22:01 | 60.29537 | 5.21751 | 144 ft | 29 kts | 170° |
| 2026-04-30 22:01 | 60.29394 | 5.21818 | 149 ft | 15 kts | 132° |
| 2026-04-30 22:02 | 60.29391 | 5.21981 | 152 ft | 8 kts | 81° |
| 2026-04-30 22:02 | 60.29393 | 5.22014 | 153 ft | 0 kts | 83° |
| 2026-04-30 22:03 | 60.29397 | 5.22053 | 153 ft | 8 kts | 75° |
| 2026-04-30 22:04 | 60.29472 | 5.22093 | 152 ft | 16 kts | 349° |
| 2026-04-30 22:04 | 60.29582 | 5.22056 | 148 ft | 15 kts | 350° |
| 2026-04-30 22:04 | 60.29722 | 5.22027 | 143 ft | 7 kts | 37° |
| 2026-04-30 22:05 | 60.29732 | 5.22093 | 143 ft | 3 kts | 86° |
| 2026-04-30 22:05 | 60.29737 | 5.22169 | 142 ft | 15 kts | 81° |
| 2026-04-30 22:05 | 60.29746 | 5.22347 | 142 ft | 9 kts | 110° |
| 2026-04-30 22:05 | 60.29731 | 5.22373 | 143 ft | 3 kts | 174° |
| 2026-04-30 22:06 | 60.29686 | 5.22336 | 144 ft | 7 kts | 262° |
| 2026-04-30 22:06 | 60.29682 | 5.22254 | 143 ft | 0 kts | 261° |